Terminal Aerodrome Forecast
Issued by NWS Albany, NY

Home | Current Version | Previous Version | Text Only | Print | Product List | Glossary On
Versions: 1 2 3 4 5 6 7 8 9 10 11 12 13 14 15 16 17
000
FTUS41 KALY 281728
TAFALB
TAF
KALB 281728Z 2818/0118 29006KT P6SM SKC
     FM282200 VRB03KT P6SM SKC
     FM010800 00000KT P6SM SCT080 BKN200
     FM011200 17004KT P6SM OVC080
     FM011700 18007KT P6SM VCSH BKN035 OVC080=

USA.gov is the U.S. government's official web portal to all federal, state and local government web resources and services.